Guanhaes, Brazil
Current Conditions -  °F | °C
As of 10:00 AM on Thursday 30 Oct 2014 (Local Time) from SBIP Reporting Station
Overcast Overcast  
Wind Chill: 75°   Ceiling: 2000
Heat Index: 75°   Visibility: 6mi
Dew Point: 68°   Wind: 10mph
Humidity: 78%   Direction: 50°NE
Pressure: 30"   Gusts: NA
Location:  18.78°S, 42.93°W
Report Text: SBIP 301200Z 05009KT 9999 SCT010 BKN020 OVC035 24/20 Q1016
Loading
Personal Weather Stations






























Interactive Weather Map
Tropical Storm Tracking
New forecast layout! Learn more

10-Day Weather Forecast

Advertisements
Track Severe Weather on mobile